Birnamwood, WI (54414)

7:50 AM CDT on July 26, 2014 (GMT -0500)
Wittenberg Wi. (KWIWITTE2) Elev 1191 ft | 44.83 °N, 89.17 °W | Change Station

Current weather conditions updated 17 seconds ago

Overcast
Overcast
66.2 °F
Feels Like 66.2 °F
N
1.1
Wind Variable Wind from SSE
Gusts 2.5 mph

Today is forecast to be Much Warmer than yesterday. Isolated thunderstorms tonight.

Today
High -- | Low -- °F
--% Chance of Precip.
Yesterday
High -- | Low -- °F
Precip. -- in
5:35 AM 8:30 PM
Waning Crescent, 0% visible
Pressure 29.83 in
Visibility 5.0 miles
Clouds Overcast 300 ft
Dew Point 66 °F
Humidity 98%
Rainfall 0.00 in
Snow Depth Not available.
UV 0 out of 12
Pollen 6.70 out of 12
Air Quality Not available.
Flu Activity Not available.
METAR KAIG 261235Z AUTO 26007KT 5SM BR OVC003 18/18 A2983 RMK AO2 T01820178

More Conditions Fewer Conditions

Pressure 29.83 in
Visibility 5.0 miles
Clouds Overcast 300 ft
Dew Point 66 °F
Humidity 98%
Rainfall 0.00 in
Snow Depth Not available.
UV 0 out of 12
Pollen 6.70 out of 12
Air Quality Not available.
Flu Activity Not available.
METAR KAIG 261235Z AUTO 26007KT 5SM BR OVC003 18/18 A2983 RMK AO2 T01820178

More Conditions Fewer Conditions

10-Day Weather Forecast

Almanac

Astronomy

Jul. 26, 2014 Rise Set
Actual Time 5:35 AM CDT 8:30 PM CDT
Civil Twilight 5:01 AM CDT 9:04 PM CDT
Nautical Twilight 4:17 AM CDT 9:48 PM CDT
Astronomical Twilight 3:25 AM CDT 10:39 PM CDT
Moon 5:31 AM CDT 8:00 PM CDT
Length of Visible Light 16h 03m
Length of Day
14h 54m
Tomorrow will be 2m 12s shorter.
Waning Crescent, 0% of the Moon is Illuminated
Today
Waning Crescent
Jul 26
New
Aug 3
First Quarter
Aug 10
Full
Aug 17
Last Quarter

Today's Extremes

State Highs State Lows

Community

WunderPhotos

Upload Photos

1,737,558 photos uploaded!

Nearby

Snow Depth

Station Depth Elevation
No new snow has been reported.

Earthquake Activity

City Distance Mag. Time & Date
No recent earthquake activity has been reported nearby.
Minimum magnitude displayed is 2.5.

Coastal Water Temperatures

Place Temperature
No Stations Reporting

Nearby Weather Stations

Station Location Temp. Dew Point Humidity Wind Precip. Elev Updated Type
Wittenberg Wi., Wittenberg, WI 66.2 °F 66 °F 98% SSE  at  1.1 mph 0.00 in / hr 1191 ft 7:50 AM CDT Rapid Fire
Knopf's House, Weston, WI 66.4 °F 62 °F 87% East  at  3.2 mph - / hr 1214 ft 7:45 AM CDT Normal
Hawthorn Hills Elementary School, Wausau, WI 66.5 °F 65 °F 94% SW  at  0.0 mph 0.01 in / hr 1201 ft 7:50 AM CDT Rapid Fire
6 White Pillars, Wausau, WI 65.4 °F 64 °F 96% SSW  at  2.0 mph 0.00 in / hr 1381 ft 7:50 AM CDT Normal

Show More Stations Show Fewer Stations